Terminal Aerodrome Forecast
Issued by NWS

Home | Current Version | Previous Version | Graphics & Text | Print | Product List | Glossary On
Versions: 1 2 3 4 5 6 7 8 9 10 11 12 13 14 15 16 17 18 19 20 21 22 23 24 25 26 27 28 29 30 31 32 33 34 35 36 37
000
FTUS43 KLOT 011400 AAA
TAFDPA
TAF AMD
KDPA 011413Z 0114/0212 20013G23KT P6SM BKN012
      TEMPO 0114/0117 SHRA SCT008 BKN010
     FM011700 23015G22KT P6SM SCT030 BKN050
     FM012300 24012KT P6SM SCT030 BKN050 PROB30 0123/0205 3SM TSRA
      SCT020 OVC040CB
     FM021000 30008KT P6SM SCT040=

USA.gov is the U.S. government's official web portal to all federal, state and local government web resources and services.